CST,Max TemperatureF,Mean TemperatureF,Min TemperatureF,Max Dew PointF,MeanDew PointF,Min DewpointF,Max Humidity, Mean Humidity, Min Humidity, Max Sea Level PressureIn, Mean Sea Level PressureIn, Min Sea Level PressureIn, Max VisibilityMiles, Mean VisibilityMiles, Min VisibilityMiles, Max Wind SpeedMPH, Mean Wind SpeedMPH, Max Gust SpeedMPH,PrecipitationIn, CloudCover, Events, WindDirDegrees
2013-11-1,46,44,42,41,38,36,87,80,76,29.72,29.55,29.29,10,10,7,20,13,30,0.00,8,Rain,273
2013-11-2,48,42,37,39,36,30,93,79,53,30.15,29.91,29.73,10,9,4,14,7,18,0.00,8,Rain,331
2013-11-3,50,40,30,37,33,28,100,79,50,30.30,30.24,30.15,10,10,5,14,2,18,0.00,2,,139
2013-11-4,53,48,44,41,38,36,76,67,54,30.26,30.19,30.07,10,10,10,17,12,26,0.00,3,,171
2013-11-5,55,52,48,48,44,41,88,78,67,30.26,30.12,29.90,10,9,5,17,6,23,0.00,8,Rain,184
2013-11-6,55,44,32,52,39,23,94,81,65,30.14,29.93,29.74,10,9,2,17,13,30,0.05,5,Rain,249
2013-11-7,41,34,28,28,26,23,87,75,61,30.22,30.18,30.14,10,10,10,16,6,20,0.00,3,,276
2013-11-8,44,35,26,30,27,21,93,72,49,30.30,30.15,29.86,10,8,2,18,6,24,0.00,2,,212
2013-11-9,51,46,39,37,31,21,71,57,45,30.04,29.86,29.76,10,10,10,28,16,36,0.00,5,Rain,247
2013-11-10,46,42,37,30,27,23,65,58,43,30.29,30.18,30.04,10,10,10,17,12,25,0.00,6,,263
2013-11-11,42,33,24,34,23,12,93,64,51,30.52,30.24,30.05,10,9,1,17,10,25,0.00,6,Rain-Snow,306
2013-11-12,30,24,19,16,13,9,80,64,43,30.68,30.59,30.50,10,10,10,15,8,18,0.00,0,,294
2013-11-13,42,30,19,16,13,7,74,54,25,30.54,30.31,30.06,10,10,10,22,11,34,0.00,0,,232
2013-11-14,46,39,32,27,21,14,61,50,37,30.05,29.96,29.89,10,10,10,17,12,25,0.00,0,,222
2013-11-15,53,45,37,32,28,25,81,59,38,29.94,29.91,29.88,10,10,10,13,9,,0.00,4,,212
2013-11-16,59,47,35,52,42,32,93,85,77,29.91,29.73,29.52,10,8,1,21,9,31,0.00,5,Fog-Rain,180
2013-11-17,62,52,42,59,48,32,94,83,66,29.57,29.42,29.04,10,8,2,28,13,43,0.01,7,Rain-Thunderstorm,219
2013-11-18,35,32,28,25,20,18,69,63,52,30.24,30.10,29.79,10,10,10,24,15,34,0.00,3,,293
2013-11-19,37,29,21,30,23,18,93,80,52,30.37,30.30,30.25,10,10,10,8,2,,0.00,0,,181
2013-11-20,42,37,32,34,29,25,93,80,49,30.27,30.22,30.12,10,9,3,22,7,23,0.05,3,Rain,165
2013-11-21,44,40,35,37,35,34,93,85,76,30.23,30.16,30.11,7,5,3,8,3,,0.00,8,Rain,359
2013-11-22,37,32,26,34,25,14,93,77,55,30.46,30.35,30.22,10,8,4,16,10,24,0.01,5,Rain-Snow,316
2013-11-23,26,19,12,14,7,0,68,58,42,30.69,30.53,30.38,10,10,10,25,12,32,0.00,2,,303
2013-11-24,26,17,8,7,2,-4,79,55,28,30.67,30.53,30.27,10,10,10,23,8,31,0.00,0,,253
2013-11-25,30,26,21,23,15,3,93,64,43,30.26,30.10,30.02,10,9,0,20,15,28,0.00,6,Snow,228
2013-11-26,32,23,14,25,16,3,80,69,44,30.18,30.06,30.01,10,10,3,18,8,25,0.00,-205,Snow,281
2013-11-27,26,18,10,18,8,3,86,67,46,30.23,30.19,30.15,10,10,2,20,10,24,0.00,3,Snow,309
2013-11-28,26,20,15,18,13,10,86,69,54,30.49,30.29,30.18,10,10,7,12,3,,0.00,5,,235
2013-11-29,32,21,10,23,14,7,92,73,47,30.63,30.50,30.36,10,10,10,12,2,16,0.00,0,,174
2013-11-30,46,37,28,28,24,19,87,71,46,30.35,30.19,30.03,10,10,7,12,7,17,0.00,1,,200